Meppen Air Base

ETWM · Nedersaksen, Duitsland

METAR historie ETWM · Meppen Air Base

Hieronder zie je METAR's van de afgelopen dagen. Kies een jaar om door oudere METAR's te bladeren, vanaf het jaar 2007.

27 november 2022

Tijd Code Weer Temp. Zicht Plafond Wind METAR/SPECI
13:20
U
5 °C 0 m - 120° 120° 4 kt METAR ETWM 271220Z AUTO 12004KT //// // ////// 05/04 Q1019 ///
13:20
U
5 °C 0 m - 120° 120° 4 kt METAR ETWM 271220Z AUTO 12004KT //// // ////// 05/04 Q1019 ///
12:20
U
5 °C 0 m - Var Var 2 kt METAR ETWM 271120Z AUTO VRB02KT //// // ////// 05/04 Q1020 ///
11:20
U
6 °C 0 m - 170° 170° 4 kt METAR ETWM 271020Z AUTO 17004KT //// // ////// 06/02 Q1021 ///
10:20
U
5 °C 0 m - 160° 160° 6 kt METAR ETWM 270920Z AUTO 16006KT //// // ////// 05/02 Q1021 ///
09:20
U
4 °C 0 m - 140° 140° 4 kt METAR ETWM 270820Z AUTO 14004KT //// // ////// 04/02 Q1021 ///
08:20
U
4 °C 0 m - 160° 160° 4 kt METAR ETWM 270720Z AUTO 16004KT //// // ////// 04/02 Q1022 ///
07:20
U
4 °C 0 m - 170° 170° 5 kt METAR ETWM 270620Z AUTO 17005KT //// // ////// 04/02 Q1022 ///
06:20
U
5 °C 0 m - 170° 170° 5 kt METAR ETWM 270520Z AUTO 17005KT //// // ////// 05/03 Q1023 ///
05:20
U
4 °C 0 m - 140° 140° 5 kt METAR ETWM 270420Z AUTO 14005KT //// // ////// 04/03 Q1023 ///
04:20
U
5 °C 0 m - 160° 160° 6 kt METAR ETWM 270320Z AUTO 16006KT //// // ////// 05/03 Q1024 ///
03:20
U
5 °C 0 m - 170° 170° 5 kt METAR ETWM 270220Z AUTO 17005KT //// // ////// 05/03 Q1024 ///
02:20
U
5 °C 0 m - 170° 170° 5 kt METAR ETWM 270120Z AUTO 17005KT //// // ////// 05/04 Q1025 ///
01:20
U
5 °C 0 m - 160° 160° 4 kt METAR ETWM 270020Z AUTO 16004KT //// // ////// 05/04 Q1025 ///
00:20
U
6 °C 0 m - 160° 160° 4 kt METAR ETWM 262320Z AUTO 16004KT //// // ////// 06/05 Q1026 ///

26 november 2022

Tijd Code Weer Temp. Zicht Plafond Wind METAR/SPECI
23:20
U
6 °C 0 m - Var Var 2 kt METAR ETWM 262220Z AUTO VRB02KT //// // ////// 06/06 Q1026 ///
22:20
U
6 °C 0 m - 180° 180° 4 kt METAR ETWM 262120Z AUTO 18004KT //// // ////// 06/06 Q1027 ///
21:20
U
6 °C 0 m - 180° 180° 5 kt METAR ETWM 262020Z AUTO 18005KT //// // ////// 06/06 Q1026 ///
20:20
U
6 °C 0 m - 180° 180° 4 kt METAR ETWM 261920Z AUTO 18004KT //// // ////// 06/06 Q1027 ///
19:20
U
7 °C 0 m - 190° 190° 4 kt METAR ETWM 261820Z AUTO 19004KT //// // ////// 07/06 Q1027 ///
18:20
U
8 °C 0 m - 190° 190° 4 kt METAR ETWM 261720Z AUTO 19004KT //// // ////// 08/07 Q1027 ///
17:20
U
8 °C 0 m - 180° 180° 3 kt METAR ETWM 261620Z AUTO 18003KT //// // ////// 08/07 Q1027 ///
16:20
U
8 °C 0 m - 180° 180° 5 kt METAR ETWM 261520Z AUTO 18005KT //// // ////// 08/08 Q1027 ///
15:20
U
8 °C 0 m - 180° 180° 5 kt METAR ETWM 261420Z AUTO 18005KT //// // ////// 08/08 Q1027 ///
14:20
U
8 °C 0 m - 180° 180° 3 kt METAR ETWM 261320Z AUTO 18003KT //// // ////// 08/08 Q1028 ///
13:20
U
7 °C 0 m - 180° 180° 5 kt METAR ETWM 261220Z AUTO 18005KT //// // ////// 07/07 Q1028 ///
12:20
U
6 °C 0 m - 200° 200° 7 kt METAR ETWM 261120Z AUTO 20007KT //// // ////// 06/06 Q1028 ///
11:20
U
6 °C 0 m - 200° 200° 5 kt METAR ETWM 261020Z AUTO 20005KT //// // ////// 06/06 Q1028 ///
10:20
U
5 °C 0 m - 210° 210° 5 kt METAR ETWM 260920Z AUTO 21005KT //// // ////// 05/05 Q1028 ///
09:20
U
5 °C 0 m - 200° 200° 4 kt METAR ETWM 260820Z AUTO 20004KT //// // ////// 05/05 Q1027 ///
08:20
U
5 °C 0 m - 200° 200° 5 kt METAR ETWM 260720Z AUTO 20005KT //// // ////// 05/05 Q1027 ///
07:20
U
5 °C 0 m - 200° 200° 5 kt METAR ETWM 260620Z AUTO 20005KT //// // ////// 05/04 Q1026 ///
06:20
U
4 °C 0 m - 200° 200° 4 kt METAR ETWM 260520Z AUTO 20004KT //// // ////// 04/04 Q1026 ///
05:20
U
4 °C 0 m - 220° 220° 4 kt METAR ETWM 260420Z AUTO 22004KT //// // ////// 04/04 Q1026 ///
04:20
U
4 °C 0 m - 200° 200° 3 kt METAR ETWM 260320Z AUTO 20003KT //// // ////// 04/04 Q1025 ///
03:20
U
4 °C 0 m - 210° 210° 3 kt METAR ETWM 260220Z AUTO 21003KT //// // ////// 04/04 Q1025 ///
02:20
U
5 °C 0 m - 220° 220° 3 kt METAR ETWM 260120Z AUTO 22003KT //// // ////// 05/04 Q1024 ///
01:20
U
5 °C 0 m - 230° 230° 3 kt METAR ETWM 260020Z AUTO 23003KT //// // ////// 05/05 Q1024 ///
00:20
U
5 °C 0 m - 210° 210° 3 kt METAR ETWM 252320Z AUTO 21003KT //// // ////// 05/04 Q1023 ///

25 november 2022

Tijd Code Weer Temp. Zicht Plafond Wind METAR/SPECI
23:20
U
5 °C 0 m - 220° 220° 2 kt METAR ETWM 252220Z AUTO 22002KT //// // ////// 05/05 Q1023 ///
22:20
U
5 °C 0 m - 220° 220° 2 kt METAR ETWM 252120Z AUTO 22002KT //// // ////// 05/05 Q1022 ///
21:20
U
6 °C 0 m - 230° 230° 3 kt METAR ETWM 252020Z AUTO 23003KT //// // ////// 06/06 Q1021 ///
20:20
U
7 °C 0 m - 240° 240° 3 kt METAR ETWM 251920Z AUTO 24003KT //// // ////// 07/07 Q1020 ///
19:20
U
7 °C 0 m - 230° 230° 3 kt METAR ETWM 251820Z AUTO 23003KT //// // ////// 07/07 Q1019 ///
18:20
U
9 °C 0 m - Var Var 3 kt METAR ETWM 251720Z AUTO VRB03KT //// // ////// 09/08 Q1018 ///
17:20
U
9 °C 0 m - 220° 220° 3 kt METAR ETWM 251620Z AUTO 22003KT //// // ////// 09/07 Q1017 ///
16:20
U
10 °C 0 m - 220° 220° 3 kt METAR ETWM 251520Z AUTO 22003KT //// // ////// 10/07 Q1016 ///
15:20
U
11 °C 0 m - 210° 210° 4 kt METAR ETWM 251420Z AUTO 21004KT //// // ////// 11/07 Q1015 ///
14:20
U
11 °C 0 m - 230° 230° 6 kt METAR ETWM 251320Z AUTO 23006KT //// // ////// 11/07 Q1015 ///
13:20
U
11 °C 0 m - 250° 250° 7 - 18 kt METAR ETWM 251220Z AUTO 25007G18KT //// // ////// 11/07 Q1014 ///
12:20
U
11 °C 0 m - 240° 240° 7 kt METAR ETWM 251120Z AUTO 24007KT //// // ////// 11/07 Q1013 ///
11:20
V
10 °C 10 km+ - 220° 220° 7 kt METAR ETWM 251020Z 22007KT 9999 FEW011 10/08 Q1013 BLU+

Wij en derden volgen je internetgedrag op onze website met cookies. Als je doorgaat, gaan we ervan uit dat je akkoord gaat met onze cookiebeleid.